Caper — WDH5337 — position and weather

sailwx.info

Track history (hours):
 
Tides and Currents Weather Stations Pressure Air Temp Water Temp Dewpoint Dewpoint Depression Visibility Wind Speed Wind Dir Waves Ship Positions

Caper

Owner: Winchester III, Eugene, ANNAPOLIS, MD. More information available from US FCC via Universal Licensing System and Coast Guard Vessel Documentation Center.

Last reported at 2018-Feb-16 17:28 UTC. Time now 2018-Jun-18 02:16 UTC.
Position N 25°33' W 080°14'.
Warning: this ship's position is months out of date.

Length 13 m.

Type: Sailing vessel. MMSI: 367626950.

Date/timePositionNaut miles runAvg speedWind from/ knotsBaromVisibWave heightAir tempDewpointWater temp
2018-Feb-16 17:28N 25°33' W 080°14'3 6.5
2018-Feb-16 17:00N 25°36' W 080°13'3 6.7
2018-Feb-16 16:30N 25°39' W 080°12'2 0.1
2018-Feb-15 23:06N 25°40' W 080°10'0 0.1
2018-Feb-15 23:00N 25°40' W 080°10'2 3.8
2018-Feb-15 22:24N 25°41' W 080°08'3 6.8
2018-Feb-15 22:00N 25°44' W 080°07'3 6.6
2018-Feb-15 21:29N 25°47' W 080°06'3 6.5
2018-Feb-15 20:59N 25°50' W 080°06'3 6.5
2018-Feb-15 20:29N 25°54' W 080°06'3 6.6
2018-Feb-15 19:59N 25°57' W 080°06'3 6.9
2018-Feb-15 19:29N 26°00' W 080°06'3 7.2
2018-Feb-15 19:00N 26°04' W 080°06'3 5.4
2018-Feb-15 18:30N 26°06' W 080°07'0 0.0
2018-Feb-14 21:41N 26°06' W 080°07'0 0.0
2018-Feb-14 21:26N 26°06' W 080°07'0 0.0
2018-Feb-14 19:47N 26°06' W 080°07'0 1.1
2018-Feb-14 19:30N 26°06' W 080°07'1 1.5
2018-Feb-14 19:00N 26°06' W 080°06'3 5.9
2018-Feb-14 18:26N 26°05' W 080°03'4 7.8
2018-Feb-14 17:57N 26°03' W 079°59'4 7.6
2018-Feb-14 17:27N 26°01' W 079°55'  
Track history (hours):
 
Tides and Currents Weather Stations Pressure Air Temp Water Temp Dewpoint Dewpoint Depression Visibility Wind Speed Wind Dir Waves Ship Positions

Caper

Owner: Winchester III, Eugene, ANNAPOLIS, MD. More information available from US FCC via Universal Licensing System and Coast Guard Vessel Documentation Center.

Last reported at 2018-Feb-16 17:28 UTC. Time now 2018-Jun-18 02:16 UTC.
Position N 25°33' W 080°14'.
Warning: this ship's position is months out of date.

Length 13 m.

Type: Sailing vessel. MMSI: 367626950.

Date/timePositionNaut miles runAvg speedWind from/ knotsBaromVisibWave heightAir tempDewpointWater temp
2018-Feb-16 17:28N 25°33' W 080°14'3 6.5
2018-Feb-16 17:00N 25°36' W 080°13'3 6.7
2018-Feb-16 16:30N 25°39' W 080°12'2 0.1
2018-Feb-15 23:06N 25°40' W 080°10'0 0.1
2018-Feb-15 23:00N 25°40' W 080°10'2 3.8
2018-Feb-15 22:24N 25°41' W 080°08'3 6.8
2018-Feb-15 22:00N 25°44' W 080°07'3 6.6
2018-Feb-15 21:29N 25°47' W 080°06'3 6.5
2018-Feb-15 20:59N 25°50' W 080°06'3 6.5
2018-Feb-15 20:29N 25°54' W 080°06'3 6.6
2018-Feb-15 19:59N 25°57' W 080°06'3 6.9
2018-Feb-15 19:29N 26°00' W 080°06'3 7.2
2018-Feb-15 19:00N 26°04' W 080°06'3 5.4
2018-Feb-15 18:30N 26°06' W 080°07'0 0.0
2018-Feb-14 21:41N 26°06' W 080°07'0 0.0
2018-Feb-14 21:26N 26°06' W 080°07'0 0.0
2018-Feb-14 19:47N 26°06' W 080°07'0 1.1
2018-Feb-14 19:30N 26°06' W 080°07'1 1.5
2018-Feb-14 19:00N 26°06' W 080°06'3 5.9
2018-Feb-14 18:26N 26°05' W 080°03'4 7.8
2018-Feb-14 17:57N 26°03' W 079°59'4 7.6
2018-Feb-14 17:27N 26°01' W 079°55'  

Dump ship's entire track history